createdAt,value
2022-10-09T00:01:22.681Z,15.40
2022-10-09T00:03:52.738Z,15.40
2022-10-09T00:06:30.005Z,15.40
2022-10-09T00:08:56.567Z,15.30
2022-10-09T00:11:26.555Z,15.30
2022-10-09T00:13:55.072Z,15.30
2022-10-09T00:16:22.903Z,15.30
2022-10-09T00:18:50.481Z,15.30
2022-10-09T00:21:27.769Z,15.30
2022-10-09T00:23:57.667Z,15.30
2022-10-09T00:26:25.355Z,15.20
2022-10-09T00:28:52.737Z,15.40
2022-10-09T00:31:20.192Z,15.30
2022-10-09T00:33:47.206Z,15.20
2022-10-09T00:36:21.579Z,15.20
2022-10-09T00:38:48.772Z,15.20
2022-10-09T00:41:20.032Z,15.20
2022-10-09T00:44:59.158Z,15.20
2022-10-09T00:47:49.758Z,15.20
2022-10-09T00:50:59.559Z,15.30
2022-10-09T00:53:29.197Z,15.20
2022-10-09T00:55:57.420Z,15.20
2022-10-09T00:58:25.255Z,15.20
2022-10-09T01:00:52.546Z,15.10
2022-10-09T01:03:19.222Z,15.10
2022-10-09T01:06:20.191Z,15.20
2022-10-09T01:09:19.058Z,15.20
2022-10-09T01:12:49.013Z,15.20
2022-10-09T01:15:40.003Z,15.10
2022-10-09T01:18:36.719Z,15.20
2022-10-09T01:21:42.321Z,15.20
2022-10-09T01:24:36.241Z,15.20
2022-10-09T01:27:37.182Z,15.10
2022-10-09T01:30:11.342Z,15.00
2022-10-09T01:32:43.677Z,14.90
2022-10-09T01:35:12.572Z,14.80
2022-10-09T01:37:43.558Z,14.90
2022-10-09T01:40:13.867Z,14.70
2022-10-09T01:42:40.640Z,14.60
2022-10-09T01:45:08.723Z,14.70
2022-10-09T01:47:37.130Z,14.70
2022-10-09T01:52:04.852Z,14.70
2022-10-09T01:56:34.792Z,14.80
2022-10-09T01:59:15.633Z,14.80
2022-10-09T02:01:44.802Z,14.70
2022-10-09T02:04:16.115Z,14.70
2022-10-09T02:06:45.367Z,14.70
2022-10-09T02:09:15.695Z,14.90
2022-10-09T02:11:52.331Z,14.80
2022-10-09T02:14:18.820Z,14.70
2022-10-09T02:17:01.476Z,14.70
2022-10-09T02:19:43.229Z,14.70
2022-10-09T02:22:18.498Z,14.70
2022-10-09T02:24:45.861Z,14.70
2022-10-09T02:27:15.105Z,14.70
2022-10-09T02:29:44.472Z,14.80
2022-10-09T02:32:11.971Z,14.80
2022-10-09T02:34:38.738Z,14.80
2022-10-09T02:37:06.785Z,14.80
2022-10-09T02:39:33.752Z,14.70
2022-10-09T02:42:00.250Z,14.70
2022-10-09T02:44:26.880Z,14.70
2022-10-09T02:46:53.555Z,14.90
2022-10-09T02:49:20.060Z,14.90
2022-10-09T02:51:46.601Z,14.80
2022-10-09T02:54:14.187Z,14.80
2022-10-09T02:56:40.675Z,14.90
2022-10-09T02:59:07.432Z,14.80
2022-10-09T03:01:34.423Z,14.70
2022-10-09T03:04:01.055Z,14.60
2022-10-09T03:06:28.755Z,14.60
2022-10-09T03:08:56.593Z,14.60
2022-10-09T03:11:25.352Z,14.60
2022-10-09T03:13:51.917Z,14.60
2022-10-09T03:16:22.692Z,14.80
2022-10-09T03:18:51.212Z,14.90
2022-10-09T03:21:27.124Z,14.80
2022-10-09T03:23:54.295Z,14.80
2022-10-09T03:26:24.488Z,14.80
2022-10-09T03:28:52.883Z,14.80
2022-10-09T03:31:51.793Z,14.70
2022-10-09T03:34:19.501Z,14.70
2022-10-09T03:36:46.030Z,14.60
2022-10-09T03:39:12.527Z,14.60
2022-10-09T03:41:38.993Z,14.60
2022-10-09T03:44:05.534Z,14.60
2022-10-09T03:46:32.071Z,14.60
2022-10-09T03:48:58.641Z,14.60
2022-10-09T03:51:25.119Z,14.70
2022-10-09T03:53:51.593Z,14.60
2022-10-09T03:56:18.097Z,14.50
2022-10-09T03:58:44.605Z,14.50
2022-10-09T04:01:11.160Z,14.50
2022-10-09T04:03:37.648Z,14.50
2022-10-09T04:06:04.554Z,14.50
2022-10-09T04:08:31.046Z,14.40
2022-10-09T04:10:58.868Z,14.30
2022-10-09T04:13:25.399Z,14.20
2022-10-09T04:15:56.035Z,14.20
2022-10-09T04:18:23.014Z,14.10
2022-10-09T04:20:54.389Z,14.10
2022-10-09T04:23:24.879Z,14.00
2022-10-09T04:25:58.788Z,14.10
2022-10-09T04:28:31.016Z,14.10
2022-10-09T04:30:58.814Z,14.10
2022-10-09T04:33:26.584Z,14.20
2022-10-09T04:35:55.332Z,14.20
2022-10-09T04:38:23.244Z,14.20
2022-10-09T04:41:06.455Z,14.20
2022-10-09T04:43:34.424Z,14.20
2022-10-09T04:46:11.420Z,14.20
2022-10-09T04:48:44.527Z,14.20
2022-10-09T04:51:12.529Z,14.20
2022-10-09T04:53:40.251Z,14.20
2022-10-09T04:56:17.436Z,14.20
2022-10-09T04:58:45.735Z,14.20
2022-10-09T05:01:37.199Z,14.20
2022-10-09T05:04:05.460Z,14.20
2022-10-09T05:06:31.930Z,14.10
2022-10-09T05:08:58.482Z,14.10
2022-10-09T05:11:25.847Z,14.00
2022-10-09T05:13:55.659Z,13.90
2022-10-09T05:16:26.833Z,13.80
2022-10-09T05:18:57.755Z,13.80
2022-10-09T05:21:25.586Z,13.80
2022-10-09T05:23:54.270Z,13.70
2022-10-09T05:26:23.283Z,13.70
2022-10-09T05:28:50.074Z,13.70
2022-10-09T05:31:29.317Z,13.70
2022-10-09T05:33:59.244Z,13.80
2022-10-09T05:36:25.822Z,13.90
2022-10-09T05:38:52.315Z,13.90
2022-10-09T05:41:19.425Z,13.90
2022-10-09T05:43:48.467Z,13.90
2022-10-09T05:46:24.576Z,13.90
2022-10-09T05:48:58.312Z,14.00
2022-10-09T05:51:29.339Z,13.90
2022-10-09T05:53:57.432Z,13.90
2022-10-09T05:56:36.006Z,13.90
2022-10-09T05:59:14.116Z,13.90
2022-10-09T06:01:44.729Z,14.00
2022-10-09T06:04:21.642Z,14.00
2022-10-09T06:06:48.713Z,13.90
2022-10-09T06:09:19.005Z,13.90
2022-10-09T06:11:45.747Z,13.80
2022-10-09T06:14:13.012Z,13.70
2022-10-09T06:16:42.706Z,13.80
2022-10-09T06:19:13.255Z,13.80
2022-10-09T06:21:40.117Z,13.70
2022-10-09T06:24:07.651Z,13.70
2022-10-09T06:26:34.496Z,13.90
2022-10-09T06:29:02.697Z,14.00
2022-10-09T06:31:32.263Z,14.00
2022-10-09T06:34:00.979Z,14.00
2022-10-09T06:36:32.868Z,14.00
2022-10-09T06:39:01.907Z,13.90
2022-10-09T06:41:29.939Z,14.00
2022-10-09T06:44:00.087Z,14.10
2022-10-09T06:46:31.364Z,14.10
2022-10-09T06:49:00.084Z,14.10
2022-10-09T06:51:28.422Z,14.30
2022-10-09T06:53:58.157Z,14.30
2022-10-09T06:56:28.615Z,14.20
2022-10-09T06:58:55.746Z,14.30
2022-10-09T07:01:31.678Z,14.30
2022-10-09T07:04:01.577Z,14.40
2022-10-09T07:06:31.278Z,14.50
2022-10-09T07:09:05.371Z,14.60
2022-10-09T07:11:36.144Z,14.70
2022-10-09T07:14:06.186Z,14.70
2022-10-09T07:16:37.541Z,14.80
2022-10-09T07:19:10.336Z,14.90
2022-10-09T07:21:39.821Z,15.00
2022-10-09T07:24:07.961Z,15.20
2022-10-09T07:26:38.563Z,15.40
2022-10-09T07:29:08.584Z,15.40
2022-10-09T07:31:35.397Z,15.40
2022-10-09T07:34:02.771Z,15.30
2022-10-09T07:36:29.423Z,15.50
2022-10-09T07:38:58.588Z,15.60
2022-10-09T07:41:28.143Z,15.70
2022-10-09T07:43:55.542Z,15.90
2022-10-09T07:46:24.511Z,15.80
2022-10-09T07:48:51.543Z,15.80
2022-10-09T07:51:25.113Z,15.80
2022-10-09T07:53:52.592Z,15.90
2022-10-09T07:56:28.401Z,15.90
2022-10-09T07:59:01.471Z,15.90
2022-10-09T08:01:30.445Z,15.80
2022-10-09T08:03:58.365Z,15.60
2022-10-09T08:06:24.856Z,15.70
2022-10-09T08:08:53.884Z,15.80
2022-10-09T08:11:22.783Z,15.80
2022-10-09T08:13:50.823Z,16.00
2022-10-09T08:16:19.517Z,16.00
2022-10-09T08:18:47.032Z,15.90
2022-10-09T08:21:17.529Z,16.00
2022-10-09T08:23:44.263Z,16.00
2022-10-09T08:26:19.683Z,16.00
2022-10-09T08:28:59.391Z,16.10
2022-10-09T08:31:27.330Z,16.20
2022-10-09T08:33:56.693Z,16.40
2022-10-09T08:36:24.597Z,16.40
2022-10-09T08:38:51.939Z,16.30
2022-10-09T08:42:25.831Z,16.20
2022-10-09T08:44:52.672Z,16.10
2022-10-09T08:47:50.157Z,16.10
2022-10-09T08:50:24.761Z,16.00
2022-10-09T08:55:58.737Z,16.00
2022-10-09T08:58:31.648Z,16.00
2022-10-09T09:01:57.370Z,16.00
2022-10-09T09:10:07.489Z,16.10
2022-10-09T09:15:48.120Z,16.00
2022-10-09T09:21:19.870Z,15.80
2022-10-09T09:23:48.119Z,15.80
2022-10-09T09:26:21.502Z,15.90
2022-10-09T09:28:56.241Z,16.00
2022-10-09T09:31:29.696Z,15.90
2022-10-09T09:34:28.049Z,16.00
2022-10-09T09:36:58.119Z,15.90
2022-10-09T09:40:30.987Z,15.80
2022-10-09T09:43:12.719Z,15.90
2022-10-09T09:45:39.223Z,15.90
2022-10-09T09:48:15.327Z,15.90
2022-10-09T09:51:05.025Z,16.00
2022-10-09T09:53:47.420Z,16.00
2022-10-09T09:56:14.441Z,15.70
2022-10-09T09:58:54.442Z,15.80
2022-10-09T10:01:28.563Z,15.80
2022-10-09T10:03:58.767Z,15.70
2022-10-09T10:06:32.370Z,15.90
2022-10-09T10:09:12.151Z,16.00
2022-10-09T10:12:06.085Z,16.00
2022-10-09T10:14:34.629Z,15.80
2022-10-09T10:17:01.784Z,15.80
2022-10-09T10:19:37.925Z,15.80
2022-10-09T10:22:22.839Z,15.80
2022-10-09T10:24:54.219Z,15.80
2022-10-09T10:28:27.125Z,15.70
2022-10-09T10:30:58.720Z,15.70
2022-10-09T10:33:31.305Z,15.60
2022-10-09T10:35:59.018Z,15.60
2022-10-09T10:38:46.316Z,15.60
2022-10-09T10:41:29.915Z,15.50
2022-10-09T10:44:20.075Z,15.50
2022-10-09T10:46:59.275Z,15.50
2022-10-09T10:49:30.556Z,15.50
2022-10-09T10:57:01.799Z,15.60
2022-10-09T11:00:08.551Z,15.60
2022-10-09T11:04:15.863Z,15.40
2022-10-09T11:07:05.837Z,15.40
2022-10-09T11:11:25.666Z,15.40
2022-10-09T11:18:55.826Z,15.50
2022-10-09T11:23:14.373Z,15.50
2022-10-09T11:28:41.241Z,15.50
2022-10-09T11:31:34.105Z,15.60
2022-10-09T11:34:20.584Z,15.60
2022-10-09T11:36:47.957Z,15.50
2022-10-09T11:39:19.978Z,15.40
2022-10-09T11:41:50.338Z,15.50
2022-10-09T11:45:29.750Z,15.60
2022-10-09T11:53:43.765Z,15.70
2022-10-09T11:56:31.674Z,15.60
2022-10-09T11:59:05.838Z,15.60
2022-10-09T12:01:43.869Z,15.60
2022-10-09T12:04:53.469Z,15.50
2022-10-09T12:10:33.658Z,15.50
2022-10-09T12:13:06.706Z,15.60
2022-10-09T12:16:08.501Z,15.70
2022-10-09T12:18:47.228Z,15.90
2022-10-09T12:21:42.392Z,15.80
2022-10-09T12:24:17.681Z,15.70
2022-10-09T12:26:46.394Z,15.80
2022-10-09T12:29:49.958Z,15.70
2022-10-09T12:32:32.535Z,15.70
2022-10-09T12:35:03.693Z,15.70
2022-10-09T12:37:36.753Z,15.90
2022-10-09T12:40:16.623Z,15.90
2022-10-09T12:42:44.605Z,15.80
2022-10-09T12:45:22.387Z,15.80
2022-10-09T12:47:50.025Z,15.80
2022-10-09T12:50:34.113Z,15.80
2022-10-09T12:53:16.951Z,15.70
2022-10-09T12:55:49.799Z,15.70
2022-10-09T12:58:32.220Z,15.70
2022-10-09T13:01:13.073Z,15.70
2022-10-09T13:03:56.086Z,15.70
2022-10-09T13:06:27.652Z,15.70
2022-10-09T13:09:06.300Z,15.50
2022-10-09T13:11:42.767Z,15.60
2022-10-09T13:14:43.273Z,15.60
2022-10-09T13:19:32.865Z,15.50
2022-10-09T13:22:21.186Z,15.50
2022-10-09T13:24:52.624Z,15.40
2022-10-09T13:27:24.401Z,15.40
2022-10-09T13:29:51.007Z,15.40
2022-10-09T13:32:18.876Z,15.40
2022-10-09T13:34:46.668Z,15.40
2022-10-09T13:37:16.591Z,15.40
2022-10-09T13:39:43.265Z,15.40
2022-10-09T13:42:15.871Z,15.40
2022-10-09T13:44:42.605Z,15.40
2022-10-09T13:47:10.806Z,15.50
2022-10-09T13:49:37.302Z,15.40
2022-10-09T13:52:03.962Z,15.40
2022-10-09T13:54:30.452Z,15.30
2022-10-09T13:56:57.044Z,15.30
2022-10-09T13:59:24.483Z,15.40
2022-10-09T14:01:51.922Z,15.40
2022-10-09T14:04:18.624Z,15.30
2022-10-09T14:06:45.439Z,15.20
2022-10-09T14:09:11.928Z,15.10
2022-10-09T14:11:38.446Z,15.10
2022-10-09T14:14:04.903Z,15.20
2022-10-09T14:16:31.862Z,15.10
2022-10-09T14:19:02.615Z,15.10
2022-10-09T14:21:29.885Z,15.00
2022-10-09T14:24:02.671Z,15.10
2022-10-09T14:26:29.835Z,15.10
2022-10-09T14:29:00.948Z,15.00
2022-10-09T14:31:28.294Z,14.90
2022-10-09T14:33:58.958Z,14.90
2022-10-09T14:36:27.297Z,14.80
2022-10-09T14:38:54.474Z,14.80
2022-10-09T14:41:21.807Z,14.90
2022-10-09T14:43:55.416Z,14.80
2022-10-09T14:46:22.657Z,14.70
2022-10-09T14:48:49.274Z,14.70
2022-10-09T14:51:22.643Z,14.70
2022-10-09T14:53:49.836Z,14.70
2022-10-09T14:56:19.893Z,14.70
2022-10-09T14:58:47.353Z,14.60
2022-10-09T15:01:17.870Z,14.60
2022-10-09T15:03:45.326Z,14.60
2022-10-09T15:06:12.507Z,14.60
2022-10-09T15:08:42.162Z,14.60
2022-10-09T15:11:11.221Z,14.60
2022-10-09T15:13:38.702Z,14.60
2022-10-09T15:16:13.622Z,14.70
2022-10-09T15:18:40.751Z,14.50
2022-10-09T15:21:29.512Z,14.50
2022-10-09T15:23:58.737Z,14.50
2022-10-09T15:26:27.335Z,14.50
2022-10-09T15:28:53.928Z,14.50
2022-10-09T15:31:28.983Z,14.50
2022-10-09T15:34:00.163Z,14.60
2022-10-09T15:36:28.402Z,14.40
2022-10-09T15:38:54.894Z,14.30
2022-10-09T15:41:30.498Z,14.30
2022-10-09T15:44:02.467Z,14.30
2022-10-09T15:46:29.828Z,14.30
2022-10-09T15:48:56.542Z,14.40
2022-10-09T15:51:24.333Z,14.30
2022-10-09T15:53:52.318Z,14.40
2022-10-09T15:56:23.254Z,14.40
2022-10-09T15:58:51.617Z,14.30
2022-10-09T16:01:20.738Z,14.30
2022-10-09T16:03:48.482Z,14.30
2022-10-09T16:06:19.786Z,14.30
2022-10-09T16:08:47.492Z,14.30
2022-10-09T16:11:19.124Z,14.20
2022-10-09T16:13:48.541Z,14.10
2022-10-09T16:16:22.188Z,14.10
2022-10-09T16:18:49.537Z,14.20
2022-10-09T16:21:25.794Z,14.10
2022-10-09T16:23:58.119Z,14.20
2022-10-09T16:26:27.229Z,14.10
2022-10-09T16:28:53.877Z,14.20
2022-10-09T16:31:31.207Z,14.30
2022-10-09T16:33:58.627Z,14.30
2022-10-09T16:36:25.197Z,14.20
2022-10-09T16:38:51.677Z,14.20
2022-10-09T16:41:21.450Z,14.20
2022-10-09T16:43:56.486Z,14.10
2022-10-09T16:49:03.037Z,14.10
2022-10-09T16:51:35.631Z,14.10
2022-10-09T16:54:04.920Z,14.10
2022-10-09T16:56:35.729Z,14.10
2022-10-09T16:59:06.043Z,14.10
2022-10-09T17:01:39.500Z,14.10
2022-10-09T17:04:06.022Z,14.10
2022-10-09T17:06:32.759Z,14.10
2022-10-09T17:08:59.765Z,14.10
2022-10-09T17:11:29.792Z,14.20
2022-10-09T17:13:57.564Z,14.20
2022-10-09T17:16:28.592Z,14.10
2022-10-09T17:18:55.818Z,14.10
2022-10-09T17:21:22.576Z,14.10
2022-10-09T17:23:54.944Z,14.00
2022-10-09T17:26:22.727Z,14.10
2022-10-09T17:28:49.598Z,14.10
2022-10-09T17:31:23.049Z,14.20
2022-10-09T17:33:55.153Z,14.10
2022-10-09T17:36:25.316Z,14.10
2022-10-09T17:38:52.598Z,14.10
2022-10-09T17:41:22.766Z,14.20
2022-10-09T17:43:52.134Z,14.10
2022-10-09T17:46:19.806Z,14.00
2022-10-09T17:48:52.387Z,14.00
2022-10-09T17:51:35.270Z,14.00
2022-10-09T17:54:09.597Z,14.00
2022-10-09T17:56:39.541Z,14.00
2022-10-09T17:59:07.001Z,14.00
2022-10-09T18:01:33.733Z,14.00
2022-10-09T18:04:00.336Z,14.00
2022-10-09T18:06:31.014Z,14.00
2022-10-09T18:08:57.562Z,13.90
2022-10-09T18:11:25.839Z,13.90
2022-10-09T18:13:52.959Z,13.90
2022-10-09T18:16:30.208Z,13.80
2022-10-09T18:19:12.461Z,13.70
2022-10-09T18:21:43.382Z,13.70
2022-10-09T18:24:11.336Z,13.60
2022-10-09T18:26:38.427Z,13.60
2022-10-09T18:29:05.412Z,13.60
2022-10-09T18:31:31.990Z,13.60
2022-10-09T18:33:59.409Z,13.60
2022-10-09T18:36:32.943Z,13.60
2022-10-09T18:39:07.463Z,13.60
2022-10-09T18:41:35.309Z,13.70
2022-10-09T18:44:03.217Z,13.60
2022-10-09T18:46:38.914Z,13.60
2022-10-09T18:49:10.529Z,13.60
2022-10-09T18:51:40.961Z,13.60
2022-10-09T18:54:09.116Z,13.50
2022-10-09T18:56:37.615Z,13.50
2022-10-09T18:59:09.984Z,13.50
2022-10-09T19:01:36.523Z,13.40
2022-10-09T19:04:03.642Z,13.20
2022-10-09T19:06:30.240Z,13.10
2022-10-09T19:08:59.901Z,13.00
2022-10-09T19:11:33.173Z,13.00
2022-10-09T19:14:00.497Z,13.00
2022-10-09T19:16:28.482Z,13.00
2022-10-09T19:18:55.719Z,13.00
2022-10-09T19:21:22.974Z,12.90
2022-10-09T19:23:51.903Z,12.90
2022-10-09T19:26:19.489Z,12.90
2022-10-09T19:28:46.451Z,12.80
2022-10-09T19:31:13.913Z,12.90
2022-10-09T19:33:41.786Z,12.90
2022-10-09T19:36:12.079Z,12.70
2022-10-09T19:38:38.532Z,12.60
2022-10-09T19:41:15.348Z,12.50
2022-10-09T19:43:42.951Z,12.60
2022-10-09T19:46:16.969Z,12.60
2022-10-09T19:48:44.960Z,12.50
2022-10-09T19:51:19.710Z,12.50
2022-10-09T19:53:46.474Z,12.50
2022-10-09T19:56:20.207Z,12.60
2022-10-09T19:58:48.740Z,12.50
2022-10-09T20:01:19.142Z,12.50
2022-10-09T20:03:46.562Z,12.50
2022-10-09T20:06:14.392Z,12.40
2022-10-09T20:08:42.074Z,12.50
2022-10-09T20:11:10.686Z,12.50
2022-10-09T20:13:38.547Z,12.50
2022-10-09T20:16:10.539Z,12.50
2022-10-09T20:18:41.436Z,12.50
2022-10-09T20:21:13.676Z,12.60
2022-10-09T20:23:40.602Z,12.60
2022-10-09T20:26:12.966Z,12.60
2022-10-09T20:28:39.676Z,12.50
2022-10-09T20:31:10.387Z,12.50
2022-10-09T20:33:38.485Z,12.60
2022-10-09T20:36:06.525Z,12.60
2022-10-09T20:38:33.441Z,12.70
2022-10-09T20:41:08.023Z,12.70
2022-10-09T20:43:35.651Z,12.60
2022-10-09T20:46:14.551Z,12.60
2022-10-09T20:48:42.399Z,12.50
2022-10-09T20:51:09.505Z,12.60
2022-10-09T20:53:36.257Z,12.50
2022-10-09T20:56:08.008Z,12.50
2022-10-09T20:58:35.548Z,12.50
2022-10-09T21:01:10.871Z,12.60
2022-10-09T21:03:38.387Z,12.40
2022-10-09T21:06:08.200Z,12.40
2022-10-09T21:08:35.483Z,12.30
2022-10-09T21:11:11.204Z,12.20
2022-10-09T21:13:39.834Z,12.10
2022-10-09T21:16:11.285Z,12.20
2022-10-09T21:18:38.479Z,12.10
2022-10-09T21:21:12.964Z,12.10
2022-10-09T21:23:40.751Z,12.00
2022-10-09T21:26:13.864Z,12.00
2022-10-09T21:28:40.670Z,11.90
2022-10-09T21:31:09.614Z,11.90
2022-10-09T21:33:36.935Z,11.90
2022-10-09T21:36:21.988Z,11.80
2022-10-09T21:38:48.488Z,11.80
2022-10-09T21:41:15.031Z,11.80
2022-10-09T21:43:41.538Z,11.80
2022-10-09T21:46:08.018Z,11.90
2022-10-09T21:48:34.497Z,11.80
2022-10-09T21:51:00.950Z,11.70
2022-10-09T21:53:27.566Z,11.70
2022-10-09T21:55:54.011Z,11.80
2022-10-09T21:58:20.511Z,11.70
2022-10-09T22:00:59.400Z,11.70
2022-10-09T22:03:30.018Z,11.80
2022-10-09T22:05:56.491Z,11.70
2022-10-09T22:08:23.659Z,11.80
2022-10-09T22:10:50.976Z,11.60
2022-10-09T22:13:20.339Z,11.70
2022-10-09T22:15:51.000Z,11.80
2022-10-09T22:18:18.577Z,11.80
2022-10-09T22:20:48.902Z,11.70
2022-10-09T22:23:18.522Z,11.70
2022-10-09T22:25:55.099Z,11.90
2022-10-09T22:28:21.604Z,12.00
2022-10-09T22:30:48.125Z,12.00
2022-10-09T22:33:14.613Z,12.00
2022-10-09T22:35:41.661Z,12.00
2022-10-09T22:38:08.174Z,12.00
2022-10-09T22:40:34.653Z,12.00
2022-10-09T22:43:01.145Z,12.00
2022-10-09T22:45:27.601Z,12.00
2022-10-09T22:47:54.095Z,12.00
2022-10-09T22:50:20.863Z,11.90
2022-10-09T22:52:47.529Z,11.90
2022-10-09T22:55:14.235Z,11.90
2022-10-09T22:57:40.719Z,11.90
2022-10-09T23:00:08.287Z,11.90
2022-10-09T23:02:34.789Z,12.00
2022-10-09T23:05:01.285Z,11.90
2022-10-09T23:07:27.783Z,11.90
2022-10-09T23:09:54.266Z,11.90
2022-10-09T23:12:20.753Z,12.00
2022-10-09T23:14:47.222Z,12.00
2022-10-09T23:17:13.721Z,11.90
2022-10-09T23:19:40.192Z,12.00
2022-10-09T23:22:06.699Z,12.00
2022-10-09T23:24:33.196Z,12.00
2022-10-09T23:26:59.655Z,12.10
2022-10-09T23:29:26.139Z,12.10
2022-10-09T23:31:53.036Z,12.20
2022-10-09T23:34:19.559Z,12.10
2022-10-09T23:36:46.052Z,12.10
2022-10-09T23:39:12.792Z,12.10
2022-10-09T23:41:39.477Z,12.10
2022-10-09T23:44:06.038Z,12.10
2022-10-09T23:46:33.203Z,12.10
2022-10-09T23:49:00.224Z,12.10
2022-10-09T23:51:27.537Z,12.20
2022-10-09T23:53:54.557Z,12.20
2022-10-09T23:56:31.640Z,12.20
2022-10-09T23:59:00.072Z,12.20
